createdAt,value
2023-01-29T00:02:22.252Z,7.18
2023-01-29T00:04:49.694Z,7.28
2023-01-29T00:07:16.878Z,6.85
2023-01-29T00:09:44.127Z,6.85
2023-01-29T00:12:11.736Z,7.22
2023-01-29T00:14:39.005Z,7.60
2023-01-29T00:17:07.959Z,7.00
2023-01-29T00:19:35.977Z,7.20
2023-01-29T00:22:03.155Z,7.07
2023-01-29T00:24:30.418Z,7.85
2023-01-29T00:26:57.737Z,7.25
2023-01-29T00:29:25.921Z,7.57
2023-01-29T00:31:53.337Z,7.22
2023-01-29T00:34:21.589Z,7.45
2023-01-29T00:36:48.972Z,7.40
2023-01-29T00:39:16.186Z,7.38
2023-01-29T00:42:01.656Z,7.78
2023-01-29T00:47:31.062Z,7.72
2023-01-29T00:49:58.314Z,7.63
2023-01-29T00:52:25.851Z,7.88
2023-01-29T00:54:54.853Z,7.00
2023-01-29T00:57:23.244Z,7.03
2023-01-29T00:59:50.775Z,7.32
2023-01-29T01:02:36.914Z,6.18
2023-01-29T01:05:14.247Z,7.10
2023-01-29T01:07:43.298Z,7.05
2023-01-29T01:10:21.372Z,7.20
2023-01-29T01:13:03.394Z,6.03
2023-01-29T01:15:40.385Z,6.18
2023-01-29T01:18:08.004Z,6.53
2023-01-29T01:20:37.054Z,7.68
2023-01-29T01:23:05.058Z,7.15
2023-01-29T01:25:32.486Z,7.85
2023-01-29T01:28:03.300Z,7.53
2023-01-29T01:30:30.782Z,8.18
2023-01-29T01:32:59.578Z,7.30
2023-01-29T01:35:26.719Z,7.57
2023-01-29T01:37:53.986Z,8.13
2023-01-29T01:40:23.432Z,8.20
2023-01-29T01:42:56.235Z,7.20
2023-01-29T01:45:33.146Z,8.30
2023-01-29T01:48:13.120Z,6.18
2023-01-29T01:50:58.996Z,7.07
2023-01-29T01:53:39.201Z,8.13
2023-01-29T01:56:16.641Z,7.72
2023-01-29T01:58:52.041Z,8.88
2023-01-29T02:01:26.607Z,7.07
2023-01-29T02:04:23.823Z,6.88
2023-01-29T02:07:11.487Z,6.95
2023-01-29T02:09:46.475Z,7.93
2023-01-29T02:14:43.693Z,7.80
2023-01-29T02:17:32.207Z,8.13
2023-01-29T02:20:18.512Z,7.70
2023-01-29T02:23:15.005Z,8.13
2023-01-29T02:26:27.116Z,8.48
2023-01-29T02:29:34.032Z,7.72
2023-01-29T02:32:14.670Z,9.20
2023-01-29T02:35:19.218Z,8.13
2023-01-29T02:37:58.805Z,7.38
2023-01-29T02:40:30.435Z,7.38
2023-01-29T02:43:07.688Z,7.53
2023-01-29T02:45:42.375Z,8.05
2023-01-29T02:48:17.226Z,6.78
2023-01-29T02:50:48.444Z,7.90
2023-01-29T02:53:19.974Z,8.52
2023-01-29T02:55:57.361Z,8.15
2023-01-29T02:58:24.763Z,7.88
2023-01-29T03:00:55.057Z,7.32
2023-01-29T03:03:43.213Z,8.02
2023-01-29T03:06:23.376Z,8.00
2023-01-29T03:08:58.016Z,9.05
2023-01-29T03:11:31.985Z,6.65
2023-01-29T03:14:04.841Z,8.68
2023-01-29T03:16:48.863Z,9.48
2023-01-29T03:19:29.797Z,7.82
2023-01-29T03:21:59.769Z,7.88
2023-01-29T03:25:03.964Z,8.30
2023-01-29T03:28:05.326Z,8.93
2023-01-29T03:31:04.762Z,8.18
2023-01-29T03:33:49.645Z,8.18
2023-01-29T03:36:45.344Z,7.85
2023-01-29T03:39:15.580Z,8.48
2023-01-29T03:42:03.774Z,9.23
2023-01-29T03:44:49.973Z,9.55
2023-01-29T03:47:57.584Z,9.00
2023-01-29T03:50:42.872Z,10.63
2023-01-29T03:53:31.956Z,8.48
2023-01-29T03:56:14.201Z,9.30
2023-01-29T03:59:05.148Z,9.00
2023-01-29T04:02:00.394Z,9.68
2023-01-29T04:04:33.125Z,9.70
2023-01-29T04:07:31.813Z,9.85
2023-01-29T04:10:26.919Z,9.15
2023-01-29T04:13:02.753Z,8.75
2023-01-29T04:15:39.794Z,10.95
2023-01-29T04:18:15.175Z,9.73
2023-01-29T04:21:10.801Z,9.35
2023-01-29T04:23:38.059Z,9.40
2023-01-29T04:26:42.897Z,7.82
2023-01-29T04:29:22.341Z,9.32
2023-01-29T04:32:19.114Z,8.95
2023-01-29T04:35:09.559Z,9.15
2023-01-29T04:38:01.565Z,9.88
2023-01-29T04:40:45.753Z,9.00
2023-01-29T04:43:56.412Z,9.93
2023-01-29T04:46:31.882Z,10.40
2023-01-29T04:49:25.491Z,11.02
2023-01-29T04:52:02.019Z,11.73
2023-01-29T04:54:55.654Z,9.65
2023-01-29T04:57:36.351Z,9.75
2023-01-29T05:00:16.992Z,10.38
2023-01-29T05:02:45.515Z,10.40
2023-01-29T05:05:15.145Z,10.13
2023-01-29T05:07:44.238Z,10.63
2023-01-29T05:10:13.571Z,11.68
2023-01-29T05:12:43.864Z,10.82
2023-01-29T05:15:17.359Z,10.68
2023-01-29T05:17:44.605Z,11.25
2023-01-29T05:20:12.593Z,10.57
2023-01-29T05:22:44.924Z,11.40
2023-01-29T05:25:26.237Z,12.38
2023-01-29T05:28:16.418Z,10.90
2023-01-29T05:30:46.301Z,12.63
2023-01-29T05:33:22.212Z,11.45
2023-01-29T05:35:50.676Z,12.13
2023-01-29T05:38:19.157Z,12.32
2023-01-29T05:40:46.307Z,12.60
2023-01-29T05:43:19.418Z,12.45
2023-01-29T05:45:57.966Z,11.23
2023-01-29T05:48:27.728Z,13.23
2023-01-29T05:51:01.306Z,13.85
2023-01-29T05:53:32.756Z,13.15
2023-01-29T05:56:04.639Z,13.35
2023-01-29T05:58:32.926Z,12.98
2023-01-29T06:01:13.425Z,11.52
2023-01-29T06:03:40.781Z,11.48
2023-01-29T06:06:08.557Z,11.70
2023-01-29T06:08:35.744Z,12.52
2023-01-29T06:11:04.102Z,13.50
2023-01-29T06:13:31.365Z,13.05
2023-01-29T06:15:59.528Z,12.57
2023-01-29T06:18:26.740Z,15.45
2023-01-29T06:20:53.946Z,15.00
2023-01-29T06:23:21.000Z,13.70
2023-01-29T06:25:48.103Z,12.43
2023-01-29T06:28:15.148Z,13.65
2023-01-29T06:30:42.455Z,10.93
2023-01-29T06:33:09.601Z,14.45
2023-01-29T06:35:36.639Z,13.65
2023-01-29T06:38:04.904Z,12.52
2023-01-29T06:40:32.481Z,12.88
2023-01-29T06:43:01.475Z,14.55
2023-01-29T06:45:28.688Z,13.73
2023-01-29T06:47:56.801Z,13.90
2023-01-29T06:50:23.809Z,14.60
2023-01-29T06:52:51.150Z,14.43
2023-01-29T06:55:18.492Z,14.35
2023-01-29T06:57:45.663Z,13.93
2023-01-29T07:00:14.332Z,13.48
2023-01-29T07:02:41.543Z,13.63
2023-01-29T07:05:10.167Z,13.60
2023-01-29T07:07:37.331Z,13.13
2023-01-29T07:10:04.713Z,12.82
2023-01-29T07:12:35.491Z,12.35
2023-01-29T07:15:04.076Z,12.95
2023-01-29T07:17:31.370Z,13.27
2023-01-29T07:19:59.433Z,13.57
2023-01-29T07:22:26.874Z,13.30
2023-01-29T07:24:55.055Z,14.30
2023-01-29T07:27:24.186Z,14.13
2023-01-29T07:29:51.592Z,14.15
2023-01-29T07:32:19.991Z,13.13
2023-01-29T07:34:48.058Z,13.75
2023-01-29T07:37:15.456Z,13.43
2023-01-29T07:39:42.588Z,14.25
2023-01-29T07:42:12.483Z,15.15
2023-01-29T07:44:39.678Z,15.45
2023-01-29T07:47:08.717Z,13.38
2023-01-29T07:49:36.167Z,13.63
2023-01-29T07:52:03.543Z,13.07
2023-01-29T07:54:31.761Z,13.20
2023-01-29T07:57:00.496Z,13.02
2023-01-29T07:59:27.640Z,14.43
2023-01-29T08:01:54.793Z,14.15
2023-01-29T08:04:23.042Z,14.73
2023-01-29T08:06:50.146Z,15.25
2023-01-29T08:09:17.538Z,15.13
2023-01-29T08:11:44.768Z,14.43
2023-01-29T08:14:12.150Z,14.75
2023-01-29T08:16:39.421Z,15.07
2023-01-29T08:19:06.700Z,14.55
2023-01-29T08:21:33.811Z,14.43
2023-01-29T08:26:28.656Z,13.90
2023-01-29T08:28:55.696Z,13.77
2023-01-29T08:31:23.048Z,13.60
2023-01-29T08:33:50.480Z,14.65
2023-01-29T08:36:17.626Z,13.85
2023-01-29T08:38:45.983Z,11.85
2023-01-29T08:41:13.153Z,13.20
2023-01-29T08:43:40.746Z,12.48
2023-01-29T08:46:08.649Z,13.93
2023-01-29T08:48:38.151Z,11.82
2023-01-29T08:51:05.501Z,12.63
2023-01-29T08:53:34.482Z,13.02
2023-01-29T08:56:02.103Z,13.25
2023-01-29T08:58:29.575Z,11.80
2023-01-29T09:00:58.199Z,11.85
2023-01-29T09:03:25.381Z,10.82
2023-01-29T09:05:52.477Z,13.32
2023-01-29T09:08:20.488Z,13.15
2023-01-29T09:10:47.670Z,13.80
2023-01-29T09:13:15.057Z,13.13
2023-01-29T09:15:42.327Z,13.32
2023-01-29T09:18:09.881Z,13.85
2023-01-29T09:20:39.030Z,15.02
2023-01-29T09:23:09.115Z,13.02
2023-01-29T09:25:36.705Z,12.85
2023-01-29T09:28:04.553Z,14.77
2023-01-29T09:30:33.668Z,13.35
2023-01-29T09:33:01.644Z,13.35
2023-01-29T09:35:28.781Z,12.98
2023-01-29T09:37:57.095Z,13.57
2023-01-29T09:40:27.519Z,14.20
2023-01-29T09:43:02.070Z,14.02
2023-01-29T09:45:31.737Z,11.90
2023-01-29T09:48:02.400Z,12.30
2023-01-29T09:50:38.835Z,11.38
2023-01-29T09:53:34.996Z,12.65
2023-01-29T09:56:04.902Z,11.52
2023-01-29T09:58:42.058Z,11.45
2023-01-29T10:01:13.892Z,10.80
2023-01-29T10:03:52.941Z,10.65
2023-01-29T10:06:41.911Z,9.45
2023-01-29T10:09:51.120Z,10.73
2023-01-29T10:12:30.653Z,9.98
2023-01-29T10:15:11.322Z,10.93
2023-01-29T10:17:38.885Z,11.55
2023-01-29T10:20:24.754Z,11.13
2023-01-29T10:23:20.834Z,10.35
2023-01-29T10:26:02.364Z,11.60
2023-01-29T10:28:37.123Z,11.48
2023-01-29T10:31:11.444Z,11.70
2023-01-29T10:34:01.625Z,10.90
2023-01-29T10:36:49.840Z,11.90
2023-01-29T10:39:30.494Z,11.77
2023-01-29T10:42:34.405Z,10.70
2023-01-29T10:45:16.607Z,10.35
2023-01-29T10:48:21.509Z,11.63
2023-01-29T10:50:49.311Z,11.75
2023-01-29T10:53:34.792Z,11.43
2023-01-29T10:56:30.234Z,11.45
2023-01-29T10:59:05.685Z,12.45
2023-01-29T11:01:32.883Z,12.48
2023-01-29T11:04:03.496Z,11.63
2023-01-29T11:06:36.396Z,12.10
2023-01-29T11:09:48.673Z,12.60
2023-01-29T11:12:23.691Z,13.25
2023-01-29T11:15:07.173Z,12.63
2023-01-29T11:17:34.470Z,12.68
2023-01-29T11:20:01.665Z,12.85
2023-01-29T11:22:30.867Z,11.55
2023-01-29T11:25:08.467Z,11.52
2023-01-29T11:27:43.395Z,11.90
2023-01-29T11:30:38.075Z,12.10
2023-01-29T11:33:24.085Z,10.85
2023-01-29T11:35:53.051Z,11.60
2023-01-29T11:38:26.751Z,12.02
2023-01-29T11:41:08.017Z,13.05
2023-01-29T11:43:37.298Z,11.63
2023-01-29T11:46:14.069Z,11.95
2023-01-29T11:48:52.085Z,12.13
2023-01-29T11:51:25.380Z,11.57
2023-01-29T11:53:58.470Z,11.07
2023-01-29T11:56:49.182Z,10.98
2023-01-29T11:59:42.442Z,11.38
2023-01-29T12:02:28.514Z,11.57
2023-01-29T12:05:00.546Z,11.27
2023-01-29T12:07:28.983Z,11.30
2023-01-29T12:09:58.151Z,12.35
2023-01-29T12:12:39.369Z,11.48
2023-01-29T12:15:17.809Z,11.05
2023-01-29T12:17:53.869Z,11.20
2023-01-29T12:20:34.732Z,11.68
2023-01-29T12:23:24.253Z,13.38
2023-01-29T12:26:09.964Z,14.50
2023-01-29T12:28:47.837Z,11.77
2023-01-29T12:31:37.247Z,16.23
2023-01-29T12:34:39.645Z,13.27
2023-01-29T12:37:31.298Z,13.60
2023-01-29T12:39:58.557Z,12.10
2023-01-29T12:42:26.039Z,12.70
2023-01-29T12:44:57.868Z,12.32
2023-01-29T12:47:36.987Z,12.95
2023-01-29T12:50:19.144Z,12.20
2023-01-29T12:52:56.848Z,11.48
2023-01-29T12:55:37.122Z,12.25
2023-01-29T12:58:10.120Z,12.48
2023-01-29T13:00:43.666Z,11.93
2023-01-29T13:03:19.876Z,11.48
2023-01-29T13:06:02.299Z,11.82
2023-01-29T13:08:36.127Z,12.52
2023-01-29T13:11:09.556Z,11.95
2023-01-29T13:13:36.784Z,11.75
2023-01-29T13:16:10.065Z,12.23
2023-01-29T13:18:51.053Z,11.55
2023-01-29T13:21:30.732Z,11.90
2023-01-29T13:24:03.544Z,12.63
2023-01-29T13:26:32.654Z,12.57
2023-01-29T13:28:59.909Z,13.13
2023-01-29T13:31:48.615Z,22.75
2023-01-29T13:34:25.586Z,38.85
2023-01-29T13:36:56.169Z,33.78
2023-01-29T13:39:39.925Z,21.33
2023-01-29T13:42:18.613Z,15.02
2023-01-29T13:44:51.478Z,13.65
2023-01-29T13:47:28.108Z,15.32
2023-01-29T13:50:36.354Z,14.57
2023-01-29T13:53:06.181Z,16.83
2023-01-29T13:55:36.238Z,15.57
2023-01-29T13:58:16.981Z,17.40
2023-01-29T14:00:44.198Z,16.02
2023-01-29T14:03:14.243Z,13.85
2023-01-29T14:05:46.389Z,14.63
2023-01-29T14:08:14.311Z,14.05
2023-01-29T14:10:43.273Z,13.80
2023-01-29T14:13:19.312Z,14.55
2023-01-29T14:16:06.313Z,12.95
2023-01-29T14:18:46.156Z,11.73
2023-01-29T14:21:32.249Z,11.90
2023-01-29T14:24:16.869Z,13.90
2023-01-29T14:26:47.633Z,13.32
2023-01-29T14:29:29.084Z,13.07
2023-01-29T14:32:19.703Z,13.70
2023-01-29T14:35:03.728Z,12.68
2023-01-29T14:37:36.411Z,13.50
2023-01-29T14:40:19.921Z,11.73
2023-01-29T14:43:22.137Z,12.35
2023-01-29T14:45:51.816Z,12.80
2023-01-29T14:48:39.736Z,12.80
2023-01-29T14:51:17.513Z,12.93
2023-01-29T14:54:04.373Z,11.68
2023-01-29T14:56:40.150Z,13.20
2023-01-29T14:59:30.057Z,12.90
2023-01-29T15:02:02.407Z,12.38
2023-01-29T15:04:41.351Z,12.80
2023-01-29T15:07:16.866Z,12.40
2023-01-29T15:09:55.671Z,12.93
2023-01-29T15:12:48.733Z,12.40
2023-01-29T15:15:28.163Z,12.15
2023-01-29T15:18:05.354Z,12.15
2023-01-29T15:20:35.530Z,13.35
2023-01-29T15:23:03.847Z,12.25
2023-01-29T15:25:48.343Z,12.05
2023-01-29T15:28:16.984Z,12.00
2023-01-29T15:30:46.262Z,11.40
2023-01-29T15:33:14.754Z,11.63
2023-01-29T15:35:43.835Z,11.43
2023-01-29T15:38:20.168Z,10.90
2023-01-29T15:40:58.798Z,11.77
2023-01-29T15:43:28.255Z,11.13
2023-01-29T15:46:05.501Z,11.48
2023-01-29T15:48:42.561Z,11.40
2023-01-29T15:51:17.772Z,10.90
2023-01-29T15:53:53.255Z,11.30
2023-01-29T15:56:28.222Z,11.35
2023-01-29T15:59:00.711Z,11.48
2023-01-29T16:01:29.015Z,11.40
2023-01-29T16:04:02.732Z,11.93
2023-01-29T16:06:41.274Z,12.18
2023-01-29T16:09:18.232Z,11.93
2023-01-29T16:11:47.759Z,11.07
2023-01-29T16:14:19.148Z,11.43
2023-01-29T16:16:48.637Z,12.10
2023-01-29T16:19:28.324Z,11.27
2023-01-29T16:22:07.596Z,11.55
2023-01-29T16:24:36.639Z,11.98
2023-01-29T16:27:13.375Z,11.55
2023-01-29T16:29:41.823Z,11.80
2023-01-29T16:32:09.557Z,12.55
2023-01-29T16:34:40.446Z,12.82
2023-01-29T16:37:27.322Z,11.50
2023-01-29T16:39:54.809Z,12.32
2023-01-29T16:42:26.444Z,12.30
2023-01-29T16:45:01.795Z,12.48
2023-01-29T16:47:39.593Z,11.60
2023-01-29T16:50:53.950Z,13.38
2023-01-29T16:53:25.168Z,13.50
2023-01-29T16:55:52.990Z,13.23
2023-01-29T16:58:25.815Z,12.90
2023-01-29T17:00:58.458Z,12.82
2023-01-29T17:03:29.279Z,12.25
2023-01-29T17:05:59.510Z,12.45
2023-01-29T17:08:34.013Z,12.27
2023-01-29T17:11:02.450Z,11.65
2023-01-29T17:13:43.020Z,11.95
2023-01-29T17:16:33.366Z,11.20
2023-01-29T17:19:00.871Z,11.65
2023-01-29T17:21:29.938Z,11.27
2023-01-29T17:23:57.046Z,11.23
2023-01-29T17:26:25.742Z,11.00
2023-01-29T17:28:54.912Z,12.48
2023-01-29T17:31:22.978Z,10.30
2023-01-29T17:33:50.295Z,11.65
2023-01-29T17:36:23.585Z,11.35
2023-01-29T17:38:50.832Z,12.00
2023-01-29T17:41:28.509Z,12.13
2023-01-29T17:43:56.435Z,11.43
2023-01-29T17:46:26.645Z,12.55
2023-01-29T17:48:53.779Z,11.73
2023-01-29T17:51:22.968Z,10.77
2023-01-29T17:53:52.213Z,11.50
2023-01-29T17:56:31.049Z,11.57
2023-01-29T17:58:58.118Z,11.75
2023-01-29T18:01:25.326Z,11.88
2023-01-29T18:03:52.910Z,11.30
2023-01-29T18:06:28.845Z,11.90
2023-01-29T18:08:59.242Z,10.60
2023-01-29T18:11:26.470Z,10.73
2023-01-29T18:13:53.766Z,11.30
2023-01-29T18:16:24.091Z,10.95
2023-01-29T18:18:52.347Z,10.98
2023-01-29T18:21:19.866Z,11.77
2023-01-29T18:23:46.983Z,12.65
2023-01-29T18:26:16.524Z,11.48
2023-01-29T18:28:43.908Z,11.88
2023-01-29T18:31:13.151Z,11.93
2023-01-29T18:33:41.136Z,11.90
2023-01-29T18:36:08.752Z,12.70
2023-01-29T18:38:37.190Z,12.13
2023-01-29T18:41:06.553Z,12.73
2023-01-29T18:43:33.705Z,14.55
2023-01-29T18:46:01.907Z,13.18
2023-01-29T18:48:30.539Z,12.32
2023-01-29T18:50:57.931Z,12.70
2023-01-29T18:53:25.292Z,12.35
2023-01-29T18:56:00.545Z,12.07
2023-01-29T18:58:35.564Z,12.35
2023-01-29T19:03:39.593Z,12.63
2023-01-29T19:06:10.651Z,12.52
2023-01-29T19:08:40.840Z,13.00
2023-01-29T19:11:09.096Z,13.43
2023-01-29T19:13:38.161Z,14.52
2023-01-29T19:16:10.197Z,14.90
2023-01-29T19:18:43.878Z,14.38
2023-01-29T19:21:16.076Z,13.93
2023-01-29T19:23:45.049Z,13.82
2023-01-29T19:26:13.778Z,13.93
2023-01-29T19:28:42.375Z,13.32
2023-01-29T19:31:12.407Z,13.02
2023-01-29T19:33:39.723Z,13.75
2023-01-29T19:36:07.334Z,13.45
2023-01-29T19:38:38.064Z,13.18
2023-01-29T19:41:06.494Z,13.82
2023-01-29T19:43:33.590Z,13.88
2023-01-29T19:46:01.629Z,14.45
2023-01-29T19:48:29.085Z,14.25
2023-01-29T19:50:58.670Z,14.10
2023-01-29T19:53:28.257Z,14.75
2023-01-29T19:56:16.132Z,14.38
2023-01-29T19:58:43.957Z,14.50
2023-01-29T20:01:21.145Z,14.27
2023-01-29T20:03:49.745Z,14.10
2023-01-29T20:06:19.720Z,13.57
2023-01-29T20:08:47.066Z,14.60
2023-01-29T20:11:15.351Z,14.15
2023-01-29T20:13:43.551Z,14.07
2023-01-29T20:16:13.209Z,13.82
2023-01-29T20:18:40.283Z,14.85
2023-01-29T20:21:09.956Z,14.10
2023-01-29T20:23:38.741Z,14.40
2023-01-29T20:26:08.910Z,13.07
2023-01-29T20:28:36.720Z,13.55
2023-01-29T20:31:05.085Z,13.45
2023-01-29T20:33:35.921Z,13.43
2023-01-29T20:36:06.783Z,13.73
2023-01-29T20:38:34.802Z,12.95
2023-01-29T20:41:15.787Z,12.77
2023-01-29T20:43:43.967Z,13.65
2023-01-29T20:46:12.065Z,12.90
2023-01-29T20:48:40.334Z,13.50
2023-01-29T20:51:13.266Z,13.68
2023-01-29T20:53:41.575Z,14.25
2023-01-29T20:56:11.260Z,15.65
2023-01-29T20:58:38.861Z,15.80
2023-01-29T21:01:15.789Z,14.30
2023-01-29T21:03:45.877Z,14.55
2023-01-29T21:06:13.834Z,13.82
2023-01-29T21:08:41.016Z,15.88
2023-01-29T21:11:10.244Z,14.80
2023-01-29T21:13:40.327Z,14.30
2023-01-29T21:16:08.058Z,13.88
2023-01-29T21:18:35.273Z,14.55
2023-01-29T21:21:02.693Z,15.23
2023-01-29T21:23:29.721Z,15.07
2023-01-29T21:26:06.827Z,14.52
2023-01-29T21:28:34.693Z,13.90
2023-01-29T21:31:10.218Z,13.45
2023-01-29T21:33:45.555Z,13.32
2023-01-29T21:36:13.331Z,14.57
2023-01-29T21:38:40.448Z,14.45
2023-01-29T21:41:09.960Z,14.70
2023-01-29T21:43:40.073Z,14.23
2023-01-29T21:46:12.167Z,13.98
2023-01-29T21:48:40.591Z,14.55
2023-01-29T21:51:09.032Z,14.13
2023-01-29T21:53:36.856Z,13.95
2023-01-29T21:56:07.067Z,14.18
2023-01-29T21:58:34.280Z,14.02
2023-01-29T22:01:18.420Z,13.80
2023-01-29T22:03:50.192Z,13.63
2023-01-29T22:06:17.507Z,14.32
2023-01-29T22:08:44.732Z,13.68
2023-01-29T22:11:13.598Z,13.68
2023-01-29T22:13:41.743Z,14.32
2023-01-29T22:16:09.203Z,13.23
2023-01-29T22:18:36.973Z,13.55
2023-01-29T22:21:04.336Z,13.73
2023-01-29T22:23:33.582Z,13.63
2023-01-29T22:26:05.265Z,13.32
2023-01-29T22:28:32.619Z,14.18
2023-01-29T22:31:05.109Z,13.95
2023-01-29T22:33:33.642Z,14.23
2023-01-29T22:36:01.119Z,13.23
2023-01-29T22:38:29.405Z,14.23
2023-01-29T22:40:59.528Z,14.00
2023-01-29T22:43:29.627Z,13.77
2023-01-29T22:45:56.930Z,13.25
2023-01-29T22:48:26.340Z,13.40
2023-01-29T22:51:12.085Z,13.85
2023-01-29T22:53:54.444Z,14.23
2023-01-29T22:56:26.526Z,13.95
2023-01-29T22:58:55.535Z,14.30
2023-01-29T23:01:27.933Z,14.18
2023-01-29T23:03:55.118Z,14.07
2023-01-29T23:06:24.796Z,14.68
2023-01-29T23:08:52.160Z,14.13
2023-01-29T23:11:21.546Z,14.82
2023-01-29T23:13:52.155Z,14.80
2023-01-29T23:16:22.612Z,15.02
2023-01-29T23:18:52.286Z,15.85
2023-01-29T23:21:20.978Z,14.95
2023-01-29T23:23:49.797Z,15.50
2023-01-29T23:26:35.855Z,15.48
2023-01-29T23:31:32.347Z,15.20
2023-01-29T23:34:01.063Z,14.90
2023-01-29T23:36:28.737Z,15.20
2023-01-29T23:38:55.885Z,15.32
2023-01-29T23:41:23.174Z,15.57
2023-01-29T23:43:52.650Z,16.45
2023-01-29T23:46:20.572Z,16.25
2023-01-29T23:48:47.780Z,16.25
2023-01-29T23:51:14.860Z,16.42
2023-01-29T23:53:42.103Z,15.90
2023-01-29T23:56:11.008Z,16.13
2023-01-29T23:58:38.080Z,15.93
